createdAt,value
2022-12-18T00:00:48.909Z,100426.78
2022-12-18T00:03:16.084Z,100422.19
2022-12-18T00:05:53.161Z,100410.41
2022-12-18T00:08:20.121Z,100402.94
2022-12-18T00:10:47.084Z,100399.31
2022-12-18T00:13:13.856Z,100399.94
2022-12-18T00:15:40.658Z,100401.69
2022-12-18T00:18:07.342Z,100399.81
2022-12-18T00:20:39.056Z,100400.50
2022-12-18T00:23:06.032Z,100404.81
2022-12-18T00:25:36.606Z,100405.59
2022-12-18T00:28:04.870Z,100422.09
2022-12-18T00:30:31.396Z,100418.59
2022-12-18T00:32:58.274Z,100415.78
2022-12-18T00:35:24.663Z,100423.69
2022-12-18T00:37:51.063Z,100418.69
2022-12-18T00:40:17.494Z,100422.28
2022-12-18T00:42:58.954Z,100426.59
2022-12-18T00:45:26.382Z,100425.78
2022-12-18T00:47:52.966Z,100416.00
2022-12-18T00:50:19.757Z,100400.81
2022-12-18T00:52:46.144Z,100404.41
2022-12-18T00:55:12.719Z,100408.69
2022-12-18T00:57:39.181Z,100408.00
2022-12-18T01:00:07.725Z,100414.50
2022-12-18T01:02:34.214Z,100417.59
2022-12-18T01:05:00.734Z,100421.69
2022-12-18T01:07:27.111Z,100420.78
2022-12-18T01:09:53.472Z,100420.78
2022-12-18T01:12:19.894Z,100428.28
2022-12-18T01:14:46.350Z,100433.56
2022-12-18T01:17:12.751Z,100424.19
2022-12-18T01:19:39.219Z,100430.19
2022-12-18T01:22:05.588Z,100427.59
2022-12-18T01:24:31.998Z,100426.59
2022-12-18T01:26:58.875Z,100434.78
2022-12-18T01:29:25.240Z,100430.31
2022-12-18T01:31:52.504Z,100433.38
2022-12-18T01:34:18.910Z,100432.00
2022-12-18T01:36:45.298Z,100424.00
2022-12-18T01:39:13.735Z,100427.00
2022-12-18T01:41:58.811Z,100430.97
2022-12-18T01:44:53.328Z,100437.38
2022-12-18T01:47:43.099Z,100426.69
2022-12-18T01:50:19.941Z,100426.47
2022-12-18T01:52:49.985Z,100438.47
2022-12-18T01:55:19.479Z,100435.06
2022-12-18T01:57:47.212Z,100420.97
2022-12-18T02:00:17.432Z,100428.78
2022-12-18T02:02:44.989Z,100428.59
2022-12-18T02:05:12.909Z,100430.19
2022-12-18T02:08:04.638Z,100427.09
2022-12-18T02:10:34.099Z,100418.09
2022-12-18T02:13:18.654Z,100416.69
2022-12-18T02:15:49.921Z,100417.56
2022-12-18T02:18:22.421Z,100426.47
2022-12-18T02:21:00.453Z,100438.88
2022-12-18T02:24:13.308Z,100441.59
2022-12-18T02:26:47.946Z,100439.47
2022-12-18T02:29:17.949Z,100428.91
2022-12-18T02:31:54.849Z,100434.06
2022-12-18T02:34:23.670Z,100426.88
2022-12-18T02:36:50.928Z,100431.88
2022-12-18T02:39:18.602Z,100424.19
2022-12-18T02:41:45.182Z,100425.28
2022-12-18T02:44:13.520Z,100424.00
2022-12-18T02:46:49.819Z,100425.41
2022-12-18T02:49:22.330Z,100424.88
2022-12-18T02:51:55.968Z,100416.97
2022-12-18T02:54:51.618Z,100418.28
2022-12-18T02:57:36.766Z,100414.75
2022-12-18T03:00:18.783Z,100421.00
2022-12-18T03:02:57.426Z,100421.16
2022-12-18T03:05:29.217Z,100425.34
2022-12-18T03:08:09.361Z,100420.25
2022-12-18T03:10:40.894Z,100422.25
2022-12-18T03:13:11.675Z,100434.53
2022-12-18T03:15:49.840Z,100438.81
2022-12-18T03:18:19.743Z,100438.22
2022-12-18T03:20:48.181Z,100438.22
2022-12-18T03:23:24.329Z,100450.50
2022-12-18T03:25:55.127Z,100451.00
2022-12-18T03:28:23.017Z,100453.09
2022-12-18T03:30:53.319Z,100451.56
2022-12-18T03:33:28.844Z,100451.66
2022-12-18T03:35:55.386Z,100451.72
2022-12-18T03:38:21.822Z,100447.34
2022-12-18T03:40:48.134Z,100448.44
2022-12-18T03:43:41.026Z,100438.16
2022-12-18T03:46:21.718Z,100441.25
2022-12-18T03:49:12.370Z,100437.53
2022-12-18T03:51:52.770Z,100444.03
2022-12-18T03:54:19.862Z,100439.41
2022-12-18T03:56:49.701Z,100435.63
2022-12-18T03:59:17.572Z,100436.03
2022-12-18T04:01:47.744Z,100439.81
2022-12-18T04:04:16.408Z,100442.66
2022-12-18T04:06:44.312Z,100443.94
2022-12-18T04:09:10.850Z,100440.25
2022-12-18T04:11:37.256Z,100436.72
2022-12-18T04:14:07.060Z,100426.69
2022-12-18T04:16:33.793Z,100428.97
2022-12-18T04:19:00.205Z,100430.50
2022-12-18T04:21:26.815Z,100426.69
2022-12-18T04:23:53.302Z,100430.78
2022-12-18T04:26:19.939Z,100434.78
2022-12-18T04:28:46.644Z,100431.75
2022-12-18T04:31:13.181Z,100434.22
2022-12-18T04:33:40.062Z,100425.78
2022-12-18T04:36:07.162Z,100434.59
2022-12-18T04:38:33.751Z,100431.75
2022-12-18T04:41:00.154Z,100431.19
2022-12-18T04:43:26.614Z,100428.44
2022-12-18T04:45:53.046Z,100430.09
2022-12-18T04:48:21.081Z,100432.78
2022-12-18T04:50:48.020Z,100447.13
2022-12-18T04:53:14.390Z,100447.06
2022-12-18T04:55:40.797Z,100452.00
2022-12-18T04:58:07.231Z,100459.50
2022-12-18T05:00:33.711Z,100451.16
2022-12-18T05:03:02.571Z,100459.81
2022-12-18T05:05:29.284Z,100458.63
2022-12-18T05:07:55.757Z,100455.25
2022-12-18T05:10:22.257Z,100457.78
2022-12-18T05:13:01.195Z,100457.63
2022-12-18T05:15:31.935Z,100468.88
2022-12-18T05:17:59.195Z,100478.44
2022-12-18T05:20:26.526Z,100484.69
2022-12-18T05:22:54.937Z,100483.56
2022-12-18T05:25:21.751Z,100493.53
2022-12-18T05:27:48.446Z,100489.47
2022-12-18T05:30:15.262Z,100493.53
2022-12-18T05:32:42.033Z,100486.69
2022-12-18T05:35:10.397Z,100489.72
2022-12-18T05:37:42.543Z,100483.66
2022-12-18T05:40:10.214Z,100482.41
2022-12-18T05:42:36.630Z,100492.66
2022-12-18T05:45:03.283Z,100492.34
2022-12-18T05:47:29.814Z,100495.88
2022-12-18T05:49:56.418Z,100501.34
2022-12-18T05:52:22.833Z,100501.00
2022-12-18T05:54:49.262Z,100494.56
2022-12-18T05:57:15.685Z,100494.63
2022-12-18T05:59:42.088Z,100503.16
2022-12-18T06:02:08.782Z,100503.91
2022-12-18T06:04:35.439Z,100490.97
2022-12-18T06:07:04.734Z,100496.69
2022-12-18T06:09:31.168Z,100497.34
2022-12-18T06:11:57.564Z,100498.09
2022-12-18T06:14:23.936Z,100501.94
2022-12-18T06:16:52.336Z,100496.31
2022-12-18T06:19:18.868Z,100497.84
2022-12-18T06:21:45.492Z,100499.19
2022-12-18T06:24:12.008Z,100504.22
2022-12-18T06:26:39.885Z,100509.50
2022-12-18T06:29:06.835Z,100507.00
2022-12-18T06:31:33.467Z,100502.56
2022-12-18T06:33:59.921Z,100491.47
2022-12-18T06:36:26.996Z,100494.69
2022-12-18T06:38:53.423Z,100490.53
2022-12-18T06:41:21.298Z,100495.38
2022-12-18T06:43:47.829Z,100493.44
2022-12-18T06:46:14.546Z,100490.06
2022-12-18T06:48:41.147Z,100502.56
2022-12-18T06:51:07.659Z,100508.22
2022-12-18T06:53:35.272Z,100519.34
2022-12-18T06:56:08.013Z,100522.25
2022-12-18T06:58:36.497Z,100525.41
2022-12-18T07:01:04.892Z,100531.72
2022-12-18T07:03:31.559Z,100530.75
2022-12-18T07:05:57.996Z,100524.91
2022-12-18T07:08:24.429Z,100531.72
2022-12-18T07:10:55.958Z,100539.88
2022-12-18T07:13:22.860Z,100544.75
2022-12-18T07:15:49.305Z,100538.69
2022-12-18T07:18:15.702Z,100548.63
2022-12-18T07:20:42.130Z,100558.53
2022-12-18T07:23:08.521Z,100554.94
2022-12-18T07:25:38.350Z,100557.84
2022-12-18T07:28:05.124Z,100565.09
2022-12-18T07:30:31.530Z,100573.75
2022-12-18T07:32:57.997Z,100580.69
2022-12-18T07:35:25.305Z,100583.22
2022-12-18T07:37:52.120Z,100577.06
2022-12-18T07:40:18.598Z,100571.84
2022-12-18T07:42:45.356Z,100578.63
2022-12-18T07:45:11.839Z,100572.25
2022-12-18T07:47:38.443Z,100563.00
2022-12-18T07:50:05.664Z,100563.25
2022-12-18T07:52:32.076Z,100550.81
2022-12-18T07:54:59.646Z,100535.59
2022-12-18T08:00:13.263Z,100530.53
2022-12-18T08:02:39.824Z,100544.31
2022-12-18T08:05:06.519Z,100547.66
2022-12-18T08:07:33.561Z,100554.19
2022-12-18T08:10:00.056Z,100558.91
2022-12-18T08:12:26.469Z,100546.13
2022-12-18T08:14:52.908Z,100547.47
2022-12-18T08:17:21.072Z,100550.19
2022-12-18T08:19:47.466Z,100546.03
2022-12-18T08:22:13.846Z,100554.19
2022-12-18T08:24:40.262Z,100548.25
2022-12-18T08:27:29.002Z,100552.31
2022-12-18T08:29:53.019Z,100546.84
2022-12-18T08:32:19.494Z,100551.28
2022-12-18T08:34:45.937Z,100556.97
2022-12-18T08:37:12.334Z,100551.28
2022-12-18T08:39:38.746Z,100548.13
2022-12-18T08:42:23.800Z,100548.94
2022-12-18T08:44:50.210Z,100541.47
2022-12-18T08:47:16.588Z,100552.53
2022-12-18T08:49:43.254Z,100557.81
2022-12-18T08:52:10.386Z,100555.03
2022-12-18T08:54:36.786Z,100559.06
2022-12-18T08:57:03.357Z,100569.59
2022-12-18T08:59:29.724Z,100570.78
2022-12-18T09:01:56.436Z,100577.75
2022-12-18T09:04:23.286Z,100572.78
2022-12-18T09:06:50.497Z,100572.91
2022-12-18T09:09:16.992Z,100580.13
2022-12-18T09:11:43.466Z,100591.31
2022-12-18T09:14:10.385Z,100590.78
2022-12-18T09:16:36.944Z,100594.50
2022-12-18T09:19:04.988Z,100592.81
2022-12-18T09:21:35.132Z,100598.69
2022-12-18T09:24:04.119Z,100602.72
2022-12-18T09:26:31.790Z,100599.09
2022-12-18T09:28:58.272Z,100588.38
2022-12-18T09:31:25.638Z,100588.03
2022-12-18T09:33:52.236Z,100567.66
2022-12-18T09:36:19.129Z,100566.19
2022-12-18T09:38:45.549Z,100560.22
2022-12-18T09:41:30.296Z,100573.78
2022-12-18T09:44:19.990Z,100565.31
2022-12-18T09:47:19.218Z,100580.09
2022-12-18T09:49:47.343Z,100576.00
2022-12-18T09:52:20.447Z,100590.22
2022-12-18T09:54:55.041Z,100588.00
2022-12-18T09:57:23.246Z,100579.53
2022-12-18T09:59:56.456Z,100591.91
2022-12-18T10:02:25.378Z,100596.41
2022-12-18T10:05:17.903Z,100581.69
2022-12-18T10:08:14.743Z,100557.84
2022-12-18T10:10:54.084Z,100565.94
2022-12-18T10:13:38.931Z,100560.03
2022-12-18T10:16:20.760Z,100553.03
2022-12-18T10:18:50.187Z,100556.84
2022-12-18T10:21:27.746Z,100545.66
2022-12-18T10:24:26.633Z,100540.31
2022-12-18T10:26:54.121Z,100538.91
2022-12-18T10:29:20.656Z,100538.59
2022-12-18T10:31:47.096Z,100536.28
2022-12-18T10:34:13.968Z,100535.91
2022-12-18T10:36:40.487Z,100535.19
2022-12-18T10:39:24.077Z,100532.69
2022-12-18T10:41:50.497Z,100528.06
2022-12-18T10:44:19.585Z,100524.75
2022-12-18T10:46:51.106Z,100516.94
2022-12-18T10:49:24.268Z,100511.84
2022-12-18T10:51:51.035Z,100509.66
2022-12-18T10:54:23.778Z,100510.16
2022-12-18T10:56:50.542Z,100502.75
2022-12-18T10:59:18.468Z,100507.63
2022-12-18T11:01:58.780Z,100505.81
2022-12-18T11:04:30.856Z,100497.78
2022-12-18T11:07:00.402Z,100490.88
2022-12-18T11:09:30.662Z,100475.88
2022-12-18T11:12:00.104Z,100486.63
2022-12-18T11:14:30.367Z,100488.91
2022-12-18T11:17:24.504Z,100491.03
2022-12-18T11:19:43.891Z,100475.50
2022-12-18T11:22:27.460Z,100485.47
2022-12-18T11:27:53.929Z,100474.94
2022-12-18T11:30:29.619Z,100462.63
2022-12-18T11:33:05.174Z,100462.19
2022-12-18T11:35:51.169Z,100456.59
2022-12-18T11:38:30.743Z,100453.00
2022-12-18T11:41:01.291Z,100454.28
2022-12-18T11:43:34.857Z,100463.66
2022-12-18T11:46:14.766Z,100458.13
2022-12-18T11:48:53.506Z,100459.63
2022-12-18T11:51:27.437Z,100469.31
2022-12-18T11:53:53.995Z,100467.88
2022-12-18T11:56:32.154Z,100454.78
2022-12-18T11:59:19.747Z,100451.50
2022-12-18T12:02:15.519Z,100453.00
2022-12-18T12:05:10.248Z,100455.13
2022-12-18T12:07:36.618Z,100449.97
2022-12-18T12:10:26.279Z,100440.25
2022-12-18T12:13:01.583Z,100431.66
2022-12-18T12:15:37.220Z,100425.22
2022-12-18T12:18:44.306Z,100418.94
2022-12-18T12:21:32.533Z,100417.78
2022-12-18T12:24:27.043Z,100408.13
2022-12-18T12:27:03.297Z,100417.41
2022-12-18T12:29:43.021Z,100412.38
2022-12-18T12:32:18.454Z,100418.94
2022-12-18T12:35:17.209Z,100411.78
2022-12-18T12:38:10.263Z,100415.31
2022-12-18T12:40:55.357Z,100414.47
2022-12-18T12:43:51.112Z,100404.66
2022-12-18T12:46:20.397Z,100407.94
2022-12-18T12:48:50.080Z,100405.13
2022-12-18T12:51:41.751Z,100406.22
2022-12-18T12:54:16.351Z,100395.13
2022-12-18T12:56:48.922Z,100395.50
2022-12-18T12:59:28.951Z,100386.03
2022-12-18T13:02:00.572Z,100382.81
2022-12-18T13:04:47.048Z,100385.50
2022-12-18T13:07:34.971Z,100373.19
2022-12-18T13:10:23.793Z,100370.19
2022-12-18T13:12:56.835Z,100362.72
2022-12-18T13:15:48.279Z,100370.41
2022-12-18T13:18:16.153Z,100364.69
2022-12-18T13:20:53.115Z,100368.13
2022-12-18T13:23:25.887Z,100356.06
2022-12-18T13:25:58.411Z,100343.72
2022-12-18T13:28:47.839Z,100346.59
2022-12-18T13:31:40.384Z,100355.56
2022-12-18T13:37:32.363Z,100368.47
2022-12-18T13:39:59.134Z,100365.25
2022-12-18T13:42:57.794Z,100362.94
2022-12-18T13:45:46.147Z,100355.97
2022-12-18T13:48:21.904Z,100342.00
2022-12-18T13:50:59.172Z,100341.25
2022-12-18T13:53:29.357Z,100348.78
2022-12-18T13:55:56.069Z,100346.31
2022-12-18T13:58:23.531Z,100347.38
2022-12-18T14:00:50.056Z,100343.78
2022-12-18T14:03:29.353Z,100345.03
2022-12-18T14:06:16.124Z,100334.13
2022-12-18T14:08:44.542Z,100338.78
2022-12-18T14:11:21.802Z,100334.13
2022-12-18T14:13:49.318Z,100334.47
2022-12-18T14:16:17.995Z,100335.00
2022-12-18T14:18:58.749Z,100338.94
2022-12-18T14:21:33.381Z,100336.28
2022-12-18T14:24:20.591Z,100335.38
2022-12-18T14:26:50.425Z,100335.72
2022-12-18T14:29:23.469Z,100330.69
2022-12-18T14:32:17.069Z,100342.72
2022-12-18T14:34:52.617Z,100344.16
2022-12-18T14:37:23.240Z,100351.69
2022-12-18T14:40:10.447Z,100349.00
2022-12-18T14:42:38.192Z,100344.53
2022-12-18T14:45:43.318Z,100352.06
2022-12-18T14:48:22.851Z,100352.25
2022-12-18T14:51:19.244Z,100345.78
2022-12-18T14:53:54.162Z,100345.97
2022-12-18T14:56:30.289Z,100343.81
2022-12-18T14:59:01.423Z,100348.09
2022-12-18T15:01:30.957Z,100352.41
2022-12-18T15:03:58.809Z,100354.22
2022-12-18T15:06:37.042Z,100348.09
2022-12-18T15:09:23.507Z,100352.25
2022-12-18T15:11:51.321Z,100352.78
2022-12-18T15:14:30.048Z,100348.47
2022-12-18T15:16:57.426Z,100350.59
2022-12-18T15:19:48.455Z,100355.47
2022-12-18T15:22:26.425Z,100363.91
2022-12-18T15:24:52.964Z,100364.06
2022-12-18T15:27:28.530Z,100366.22
2022-12-18T15:30:21.194Z,100367.66
2022-12-18T15:32:48.230Z,100369.97
2022-12-18T15:35:20.741Z,100358.53
2022-12-18T15:37:47.584Z,100356.03
2022-12-18T15:40:21.959Z,100356.88
2022-12-18T15:43:07.927Z,100348.50
2022-12-18T15:45:34.396Z,100348.84
2022-12-18T15:48:00.938Z,100340.75
2022-12-18T15:50:27.378Z,100335.75
2022-12-18T15:52:56.340Z,100347.41
2022-12-18T15:55:42.855Z,100342.00
2022-12-18T15:58:10.700Z,100347.03
2022-12-18T16:00:39.413Z,100335.56
2022-12-18T16:03:06.240Z,100340.06
2022-12-18T16:05:33.299Z,100340.22
2022-12-18T16:07:59.770Z,100341.47
2022-12-18T16:10:27.062Z,100342.00
2022-12-18T16:12:53.551Z,100334.13
2022-12-18T16:15:24.480Z,100335.56
2022-12-18T16:17:51.293Z,100330.19
2022-12-18T16:20:19.817Z,100341.13
2022-12-18T16:22:46.962Z,100347.41
2022-12-18T16:25:28.422Z,100345.25
2022-12-18T16:27:58.803Z,100347.22
2022-12-18T16:30:28.709Z,100351.38
2022-12-18T16:33:02.660Z,100337.72
2022-12-18T16:35:29.173Z,100335.94
2022-12-18T16:37:55.543Z,100338.63
2022-12-18T16:40:22.004Z,100351.38
2022-12-18T16:42:48.471Z,100352.25
2022-12-18T16:45:18.563Z,100349.38
2022-12-18T16:47:45.587Z,100346.72
2022-12-18T16:50:12.284Z,100353.16
2022-12-18T16:52:39.834Z,100348.13
2022-12-18T16:55:06.692Z,100352.78
2022-12-18T16:57:33.277Z,100343.47
2022-12-18T17:00:04.729Z,100343.47
2022-12-18T17:02:32.087Z,100337.03
2022-12-18T17:04:59.297Z,100335.41
2022-12-18T17:07:26.964Z,100333.97
2022-12-18T17:09:54.111Z,100328.78
2022-12-18T17:12:21.004Z,100337.56
2022-12-18T17:14:47.510Z,100332.16
2022-12-18T17:17:22.543Z,100336.28
2022-12-18T17:19:50.072Z,100328.59
2022-12-18T17:22:16.466Z,100326.78
2022-12-18T17:24:42.890Z,100327.69
2022-12-18T17:27:09.316Z,100320.50
2022-12-18T17:29:35.925Z,100318.72
2022-12-18T17:32:02.372Z,100311.56
2022-12-18T17:34:29.032Z,100307.59
2022-12-18T17:36:56.640Z,100305.09
2022-12-18T17:39:23.096Z,100299.00
2022-12-18T17:41:49.880Z,100293.09
2022-12-18T17:44:17.043Z,100290.94
2022-12-18T17:46:45.103Z,100288.56
2022-12-18T17:49:11.983Z,100286.09
2022-12-18T17:51:38.439Z,100286.97
2022-12-18T17:54:05.394Z,100295.41
2022-12-18T17:56:32.782Z,100282.16
2022-12-18T17:58:59.227Z,100280.69
2022-12-18T18:01:26.063Z,100290.72
2022-12-18T18:03:54.161Z,100283.19
2022-12-18T18:06:20.798Z,100283.19
2022-12-18T18:08:47.322Z,100281.03
2022-12-18T18:11:35.119Z,100279.25
2022-12-18T18:14:04.103Z,100272.78
2022-12-18T18:16:43.746Z,100274.75
2022-12-18T18:19:16.361Z,100274.94
2022-12-18T18:21:44.714Z,100265.59
2022-12-18T18:24:13.403Z,100267.03
2022-12-18T18:26:41.472Z,100271.31
2022-12-18T18:29:08.557Z,100267.38
2022-12-18T18:31:40.953Z,100264.16
2022-12-18T18:34:08.463Z,100264.31
2022-12-18T18:36:34.890Z,100258.38
2022-12-18T18:39:02.152Z,100266.09
2022-12-18T18:41:29.940Z,100266.59
2022-12-18T18:43:57.754Z,100260.88
2022-12-18T18:46:24.914Z,100261.22
2022-12-18T18:48:51.570Z,100251.34
2022-12-18T18:51:21.074Z,100253.34
2022-12-18T18:53:49.786Z,100259.78
2022-12-18T18:59:04.819Z,100270.19
2022-12-18T19:01:31.426Z,100264.06
2022-12-18T19:03:57.923Z,100264.06
2022-12-18T19:06:26.606Z,100257.03
2022-12-18T19:08:54.640Z,100259.94
2022-12-18T19:11:40.727Z,100263.19
2022-12-18T19:14:09.654Z,100261.19
2022-12-18T19:16:36.605Z,100242.16
2022-12-18T19:19:03.533Z,100244.84
2022-12-18T19:21:31.383Z,100242.88
2022-12-18T19:24:01.459Z,100251.81
2022-12-18T19:26:28.735Z,100254.16
2022-12-18T19:29:00.975Z,100255.97
2022-12-18T19:31:33.407Z,100247.69
2022-12-18T19:34:01.675Z,100242.84
2022-12-18T19:36:30.194Z,100243.56
2022-12-18T19:38:58.969Z,100235.31
2022-12-18T19:41:26.121Z,100239.63
2022-12-18T19:43:55.473Z,100233.50
2022-12-18T19:46:23.004Z,100230.28
2022-12-18T19:48:50.181Z,100231.50
2022-12-18T19:51:17.626Z,100237.13
2022-12-18T19:53:44.526Z,100230.63
2022-12-18T19:56:16.841Z,100225.59
2022-12-18T19:58:44.438Z,100216.97
2022-12-18T20:01:16.618Z,100224.66
2022-12-18T20:03:44.568Z,100218.00
2022-12-18T20:06:30.414Z,100218.00
2022-12-18T20:09:00.438Z,100214.78
2022-12-18T20:11:31.290Z,100219.81
2022-12-18T20:14:01.109Z,100225.38
2022-12-18T20:16:27.638Z,100219.41
2022-12-18T20:18:54.217Z,100217.97
2022-12-18T20:21:21.131Z,100219.59
2022-12-18T20:23:47.565Z,100211.66
2022-12-18T20:26:14.015Z,100214.00
2022-12-18T20:28:40.845Z,100216.13
2022-12-18T20:31:13.363Z,100222.97
2022-12-18T20:33:41.210Z,100221.50
2022-12-18T20:36:11.111Z,100227.63
2022-12-18T20:38:39.049Z,100233.00
2022-12-18T20:41:19.261Z,100229.38
2022-12-18T20:43:45.746Z,100226.00
2022-12-18T20:46:13.636Z,100221.84
2022-12-18T20:48:40.839Z,100227.97
2022-12-18T20:51:15.825Z,100226.13
2022-12-18T20:53:42.986Z,100231.88
2022-12-18T20:56:21.825Z,100248.53
2022-12-18T20:58:49.719Z,100228.59
2022-12-18T21:01:20.937Z,100218.53
2022-12-18T21:03:48.109Z,100219.56
2022-12-18T21:06:16.950Z,100223.91
2022-12-18T21:08:43.696Z,100220.72
2022-12-18T21:11:42.510Z,100220.66
2022-12-18T21:14:20.762Z,100217.44
2022-12-18T21:16:47.714Z,100224.41
2022-12-18T21:19:17.733Z,100217.78
2022-12-18T21:21:44.626Z,100219.00
2022-12-18T21:24:11.785Z,100221.34
2022-12-18T21:26:44.909Z,100222.81
2022-12-18T21:29:14.710Z,100211.59
2022-12-18T21:31:41.630Z,100214.31
2022-12-18T21:34:08.547Z,100215.72
2022-12-18T21:36:35.085Z,100215.19
2022-12-18T21:39:01.886Z,100227.38
2022-12-18T21:41:47.696Z,100221.47
2022-12-18T21:44:17.046Z,100226.50
2022-12-18T21:46:48.965Z,100232.97
2022-12-18T21:49:22.957Z,100230.06
2022-12-18T21:51:51.923Z,100235.09
2022-12-18T21:54:18.718Z,100232.41
2022-12-18T21:56:45.088Z,100229.16
2022-12-18T21:59:14.205Z,100228.78
2022-12-18T22:01:40.741Z,100222.84
2022-12-18T22:04:07.328Z,100221.22
2022-12-18T22:06:33.745Z,100212.41
2022-12-18T22:09:00.140Z,100213.31
2022-12-18T22:11:26.593Z,100219.75
2022-12-18T22:13:52.961Z,100216.03
2022-12-18T22:16:19.419Z,100219.22
2022-12-18T22:18:45.867Z,100220.09
2022-12-18T22:21:29.893Z,100211.13
2022-12-18T22:24:02.074Z,100218.81
2022-12-18T22:26:30.438Z,100213.78
2022-12-18T22:29:17.236Z,100211.25
2022-12-18T22:31:43.929Z,100212.34
2022-12-18T22:34:10.420Z,100209.31
2022-12-18T22:36:41.580Z,100215.75
2022-12-18T22:39:11.618Z,100208.88
2022-12-18T22:41:37.987Z,100218.22
2022-12-18T22:44:04.407Z,100217.47
2022-12-18T22:46:33.414Z,100213.91
2022-12-18T22:48:59.946Z,100218.88
2022-12-18T22:51:26.344Z,100208.53
2022-12-18T22:53:52.944Z,100207.03
2022-12-18T22:56:21.550Z,100203.13
2022-12-18T22:58:49.334Z,100203.78
2022-12-18T23:01:22.109Z,100205.72
2022-12-18T23:03:49.302Z,100194.38
2022-12-18T23:06:16.252Z,100193.47
2022-12-18T23:08:43.500Z,100196.81
2022-12-18T23:11:10.654Z,100185.31
2022-12-18T23:13:37.488Z,100176.44
2022-12-18T23:16:08.362Z,100180.03
2022-12-18T23:18:35.783Z,100174.09
2022-12-18T23:21:06.853Z,100164.03
2022-12-18T23:23:37.111Z,100164.75
2022-12-18T23:26:05.773Z,100145.66
2022-12-18T23:28:33.315Z,100142.41
2022-12-18T23:31:14.272Z,100130.88
2022-12-18T23:33:43.023Z,100141.59
2022-12-18T23:36:11.186Z,100137.66
2022-12-18T23:38:37.747Z,100131.13
2022-12-18T23:41:13.011Z,100133.31
2022-12-18T23:43:39.452Z,100134.69
2022-12-18T23:46:30.864Z,100132.50
2022-12-18T23:49:00.736Z,100134.28
2022-12-18T23:51:27.825Z,100138.75
2022-12-18T23:54:01.956Z,100143.56
2022-12-18T23:56:29.355Z,100134.63
2022-12-18T23:58:56.119Z,100137.06
